Time;durP1;ratioP1;P1;durP2;ratioP2;P2;SDS_P1;SDS_P2;PMS_P1;PMS_P2;Temp;Humidity;BMP_temperature;BMP_pressure;BME280_temperature;BME280_humidity;BME280_pressure;Samples;Min_cycle;Max_cycle;Signal;HPM_P1;HPM_P2
2023/07/24 00:00:21;;;;;;;10.80;9.13;;;20.20;99.90;;;;;;5966987;24;20396;-79
2023/07/24 00:07:31;;;;;;;;;;;;;;;;;;;;;
2023/07/24 00:10:49;;;;;;;;;;;;;;;;;;;;;
2023/07/24 00:14:08;;;;;;;11.47;8.87;;;19.80;99.90;;;;;;5987261;24;20409;-78
2023/07/24 00:20:24;;;;;;;12.10;8.70;;;19.80;99.90;;;;;;6009293;23;20424;-78
2023/07/24 00:27:10;;;;;;;;;;;;;;;;;;;;;
2023/07/24 00:36:51;;;;;;;11.90;8.57;;;19.60;99.90;;;;;;5905089;24;20419;-77
2023/07/24 00:40:05;;;;;;;13.93;9.63;;;19.60;99.90;;;;;;5930212;23;20460;-79
2023/07/24 00:49:47;;;;;;;;;;;;;;;;;;;;;
2023/07/24 00:55:41;;;;;;;10.40;8.43;;;19.40;99.90;;;;;;6085339;23;20516;-78
2023/07/24 00:58:56;;;;;;;;;;;;;;;;;;;;;
2023/07/24 01:04:37;;;;;;;10.17;9.17;;;19.30;99.90;;;;;;6090105;23;20429;-79
2023/07/24 01:10:37;;;;;;;11.03;9.47;;;19.30;99.90;;;;;;6098659;23;21003;-79
2023/07/24 01:17:08;;;;;;;10.40;8.73;;;19.20;99.90;;;;;;6092602;23;20406;-79
2023/07/24 01:23:40;;;;;;;10.47;9.17;;;19.10;99.90;;;;;;6039590;23;20400;-79
2023/07/24 01:26:23;;;;;;;10.83;8.80;;;19.10;99.90;;;;;;6102150;23;20428;-79
2023/07/24 01:38:16;;;;;;;10.90;9.30;;;19.00;99.90;;;;;;6112757;23;20397;-79
2023/07/24 01:41:18;;;;;;;;;;;;;;;;;;;;;
2023/07/24 01:43:55;;;;;;;10.37;9.30;;;18.90;99.90;;;;;;6129819;23;20397;-79
2023/07/24 01:46:46;;;;;;;9.37;8.47;;;18.90;99.90;;;;;;6128621;23;20405;-77
2023/07/24 01:49:23;;;;;;;10.10;9.10;;;18.90;99.90;;;;;;6128833;23;20448;-79
2023/07/24 01:52:07;;;;;;;10.90;9.23;;;18.90;99.90;;;;;;6130867;23;20439;-78
2023/07/24 01:54:54;;;;;;;9.50;8.50;;;18.80;99.90;;;;;;6133716;23;20500;-78
2023/07/24 01:57:58;;;;;;;9.70;8.20;;;18.80;99.90;;;;;;6133089;23;20440;-79
2023/07/24 02:00:55;;;;;;;9.73;8.67;;;18.80;99.90;;;;;;6132775;23;20408;-79
2023/07/24 02:03:35;;;;;;;10.00;9.00;;;18.80;99.90;;;;;;6132370;23;20421;-78
2023/07/24 02:06:16;;;;;;;10.50;9.50;;;18.80;99.90;;;;;;6134384;23;20440;-79
2023/07/24 02:08:55;;;;;;;10.00;9.00;;;18.80;99.90;;;;;;6136384;23;20488;-78
2023/07/24 02:11:35;;;;;;;9.30;8.30;;;18.80;99.90;;;;;;6137218;23;20452;-79
2023/07/24 02:14:31;;;;;;;;;;;;;;;;;;;;;
2023/07/24 02:19:55;;;;;;;10.00;8.20;;;18.80;99.90;;;;;;6083174;23;20428;-78
2023/07/24 02:22:39;;;;;;;8.90;7.83;;;18.90;99.90;;;;;;6145419;23;20424;-79
2023/07/24 02:25:22;;;;;;;9.40;8.43;;;18.90;99.90;;;;;;6146084;23;20455;-79
2023/07/24 02:28:02;;;;;;;10.00;9.00;;;18.90;99.90;;;;;;6145500;23;20445;-79
2023/07/24 02:30:51;;;;;;;9.10;7.90;;;18.90;99.90;;;;;;6146383;23;20428;-80
2023/07/24 02:33:29;;;;;;;9.13;8.03;;;18.90;99.90;;;;;;6143849;23;20451;-79
2023/07/24 02:36:08;;;;;;;10.07;9.10;;;18.90;99.90;;;;;;6144616;23;20447;-79
2023/07/24 02:39:10;;;;;;;8.90;8.00;;;18.90;99.90;;;;;;6143947;23;20423;-79
2023/07/24 02:44:59;;;;;;;9.13;7.67;;;18.80;99.90;;;;;;6094624;23;20868;-78
2023/07/24 02:47:50;;;;;;;9.83;8.83;;;18.70;99.90;;;;;;6144739;23;20528;-78
2023/07/24 02:50:37;;;;;;;9.20;8.30;;;18.80;99.90;;;;;;6143514;23;20433;-79
2023/07/24 02:53:13;;;;;;;9.73;8.73;;;18.70;99.90;;;;;;6143265;23;20413;-78
2023/07/24 02:56:07;;;;;;;;;;;;;;;;;;;;;
2023/07/24 02:58:42;;;;;;;9.40;8.40;;;18.50;99.90;;;;;;6140906;23;20393;-79
2023/07/24 03:01:18;;;;;;;9.73;8.73;;;18.70;99.90;;;;;;6140419;23;20420;-79
2023/07/24 03:03:53;;;;;;;9.90;8.90;;;18.60;99.90;;;;;;6145558;23;20413;-80
2023/07/24 03:06:38;;;;;;;9.57;8.57;;;18.60;99.90;;;;;;6148163;23;20413;-80
2023/07/24 03:09:42;;;;;;;9.47;8.50;;;18.60;99.90;;;;;;6141723;23;20423;-78
2023/07/24 03:12:38;;;;;;;9.90;8.90;;;18.60;99.90;;;;;;6139904;23;20413;-79
2023/07/24 03:15:18;;;;;;;9.70;8.70;;;18.50;99.90;;;;;;6134485;23;20448;-80
2023/07/24 03:17:58;;;;;;;11.03;9.93;;;18.50;99.90;;;;;;6138352;23;21035;-79
2023/07/24 03:20:39;;;;;;;10.00;9.00;;;18.50;99.90;;;;;;6140315;23;20416;-79
2023/07/24 03:23:20;;;;;;;9.53;8.50;;;18.50;99.90;;;;;;6140824;23;20718;-78
2023/07/24 03:26:18;;;;;;;9.17;8.27;;;18.40;99.90;;;;;;6141724;23;20441;-78
2023/07/24 03:29:07;;;;;;;9.97;8.97;;;18.40;99.90;;;;;;6143123;23;20422;-78
2023/07/24 03:32:16;;;;;;;10.27;9.23;;;18.40;99.90;;;;;;6142513;23;20416;-77
2023/07/24 03:35:08;;;;;;;10.83;8.57;;;18.40;99.90;;;;;;6138301;23;20436;-78
2023/07/24 03:37:51;;;;;;;8.70;7.80;;;18.30;99.90;;;;;;6137558;23;20424;-79
2023/07/24 03:40:34;;;;;;;10.27;9.00;;;18.30;99.90;;;;;;6136144;23;20497;-78
2023/07/24 03:43:30;;;;;;;9.87;8.87;;;18.30;99.90;;;;;;6138187;23;20422;-79
2023/07/24 03:46:19;;;;;;;8.73;7.90;;;18.30;99.90;;;;;;6139539;23;20437;-78
2023/07/24 03:49:27;;;;;;;10.10;8.60;;;18.30;99.90;;;;;;6138771;23;20420;-79
2023/07/24 03:52:28;;;;;;;10.80;9.27;;;18.20;99.90;;;;;;6140626;23;20713;-79
2023/07/24 03:55:07;;;;;;;9.33;8.43;;;18.30;99.90;;;;;;6139960;23;20427;-80
2023/07/24 03:58:09;;;;;;;8.97;8.07;;;18.30;99.90;;;;;;6139615;23;20395;-78
2023/07/24 04:00:54;;;;;;;9.47;8.53;;;18.30;99.90;;;;;;6138029;23;20655;-78
2023/07/24 04:04:15;;;;;;;;;;;;;;;;;;;;;
2023/07/24 04:07:33;;;;;;;10.47;9.40;;;18.30;99.90;;;;;;6114021;23;20427;-79
2023/07/24 04:13:12;;;;;;;10.40;9.40;;;18.40;99.90;;;;;;6138289;23;20477;-79
2023/07/24 04:15:48;;;;;;;12.40;8.83;;;18.40;99.90;;;;;;6143702;23;20456;-79
2023/07/24 04:18:26;;;;;;;12.37;9.93;;;18.30;99.90;;;;;;6137986;23;20772;-79
2023/07/24 04:20:57;;;;;;;9.57;8.60;;;18.40;99.90;;;;;;6138032;23;20438;-79
2023/07/24 04:26:22;;;;;;;11.43;8.97;;;18.30;99.90;;;;;;6135267;23;20416;-79
2023/07/24 04:29:14;;;;;;;18.63;11.80;;;18.40;99.90;;;;;;6141165;23;20434;-78
2023/07/24 04:32:03;;;;;;;12.50;10.80;;;18.40;99.90;;;;;;6143500;23;20462;-79
2023/07/24 04:35:05;;;;;;;10.77;8.47;;;18.50;99.90;;;;;;6140615;23;20457;-80
2023/07/24 04:44:04;;;;;;;12.03;9.10;;;18.50;99.90;;;;;;6112963;23;21020;-79
2023/07/24 04:47:04;;;;;;;10.23;9.13;;;18.60;99.90;;;;;;6132004;23;20408;-78
2023/07/24 04:58:53;;;;;;;10.50;9.10;;;18.70;99.90;;;;;;6126477;23;20426;-79
2023/07/24 05:01:30;;;;;;;11.07;9.93;;;18.70;99.90;;;;;;6129802;23;20416;-80
2023/07/24 05:04:41;;;;;;;14.53;10.73;;;18.70;99.90;;;;;;6129284;23;20421;-79
2023/07/24 05:07:46;;;;;;;14.10;10.67;;;18.70;99.90;;;;;;6132632;23;20409;-79
2023/07/24 05:10:40;;;;;;;14.20;10.50;;;18.70;99.90;;;;;;6120629;23;20527;-79
2023/07/24 05:13:31;;;;;;;11.43;9.80;;;18.70;99.90;;;;;;6133384;23;20417;-79
2023/07/24 05:16:09;;;;;;;12.73;10.80;;;18.80;99.90;;;;;;6133442;23;20488;-79
2023/07/24 05:18:45;;;;;;;14.17;10.57;;;18.80;99.90;;;;;;6133123;23;20426;-78
2023/07/24 05:21:24;;;;;;;18.23;10.80;;;18.90;99.90;;;;;;6132894;23;20391;-79
2023/07/24 05:24:36;;;;;;;;;;;;;;;;;;;;;
2023/07/24 05:27:25;;;;;;;13.90;9.93;;;19.00;99.90;;;;;;6137729;23;20405;-79
2023/07/24 05:29:57;;;;;;;14.03;10.73;;;19.00;99.90;;;;;;6136563;23;20444;-77
2023/07/24 05:32:35;;;;;;;15.50;10.57;;;19.00;99.90;;;;;;6133638;23;20420;-79
2023/07/24 05:35:25;;;;;;;13.03;11.00;;;19.00;99.90;;;;;;6134614;23;20432;-79
2023/07/24 05:38:06;;;;;;;16.93;11.00;;;19.00;99.90;;;;;;6130415;23;20421;-79
2023/07/24 05:40:48;;;;;;;12.27;10.23;;;19.10;99.90;;;;;;6128559;23;20433;-79
2023/07/24 05:43:37;;;;;;;12.77;10.23;;;19.20;99.90;;;;;;6128680;23;20495;-80
2023/07/24 05:46:26;;;;;;;11.50;10.30;;;19.20;99.90;;;;;;6128430;23;20442;-79
2023/07/24 05:52:21;;;;;;;8.80;7.90;;;19.40;99.90;;;;;;6122850;23;20435;-80
2023/07/24 05:55:02;;;;;;;11.30;9.53;;;19.50;99.90;;;;;;6127061;23;20436;-78
2023/07/24 05:57:34;;;;;;;10.07;8.37;;;19.60;99.90;;;;;;6128731;23;20385;-79
2023/07/24 06:00:27;;;;;;;10.13;8.03;;;19.70;99.90;;;;;;6129624;23;20412;-80
2023/07/24 06:03:07;;;;;;;11.30;8.60;;;19.70;99.90;;;;;;6129363;23;20471;-78
2023/07/24 06:05:42;;;;;;;9.63;8.67;;;19.70;99.90;;;;;;6127680;23;20440;-79
2023/07/24 06:08:17;;;;;;;9.57;8.47;;;19.80;99.90;;;;;;6127775;23;20446;-80
2023/07/24 06:11:18;;;;;;;11.43;9.17;;;19.80;99.90;;;;;;6128482;23;20515;-81
2023/07/24 06:13:49;;;;;;;13.00;8.27;;;19.90;99.90;;;;;;6070313;23;20419;-79
2023/07/24 06:16:38;;;;;;;13.27;8.27;;;19.90;99.90;;;;;;6129355;23;20437;-83
2023/07/24 06:19:25;;;;;;;10.33;8.17;;;19.90;99.90;;;;;;6128276;23;20402;-78
2023/07/24 06:22:00;;;;;;;9.93;8.90;;;20.10;99.90;;;;;;6125588;23;20416;-80
2023/07/24 06:24:53;;;;;;;9.40;8.40;;;20.10;99.90;;;;;;6129430;23;20463;-80
2023/07/24 06:27:33;;;;;;;11.03;8.77;;;20.10;99.90;;;;;;6133212;23;20472;-79
2023/07/24 06:30:19;;;;;;;9.00;8.17;;;20.20;99.90;;;;;;6133411;23;20412;-79
2023/07/24 06:33:04;;;;;;;10.73;9.00;;;20.20;99.90;;;;;;6132404;23;20413;-79
2023/07/24 06:35:32;;;;;;;11.70;9.17;;;20.30;99.90;;;;;;6134279;23;20448;-80
2023/07/24 06:38:08;;;;;;;12.63;9.40;;;20.30;99.90;;;;;;6134571;23;20428;-79
2023/07/24 06:40:44;;;;;;;13.60;9.37;;;20.40;99.90;;;;;;6133984;23;20413;-81
2023/07/24 06:43:20;;;;;;;9.33;8.33;;;20.40;99.90;;;;;;6136573;23;20413;-80
2023/07/24 06:45:53;;;;;;;11.37;9.43;;;20.50;99.90;;;;;;6139930;23;20942;-80
2023/07/24 06:48:36;;;;;;;10.37;9.17;;;20.50;99.90;;;;;;6138729;23;20406;-78
2023/07/24 06:51:19;;;;;;;11.43;9.00;;;20.60;99.90;;;;;;6138766;23;20441;-80
2023/07/24 06:53:47;;;;;;;11.33;9.87;;;20.60;99.90;;;;;;6136709;23;20435;-79
2023/07/24 06:56:15;;;;;;;11.23;9.60;;;20.70;99.90;;;;;;6134724;23;20481;-79
2023/07/24 06:59:05;;;;;;;9.30;8.40;;;20.60;99.90;;;;;;6134724;23;20488;-79
2023/07/24 07:01:35;;;;;;;10.63;8.40;;;20.70;99.90;;;;;;6134943;23;20459;-78
2023/07/24 07:04:33;;;;;;;10.00;9.00;;;20.80;99.90;;;;;;6134081;23;20440;-79
2023/07/24 07:07:02;;;;;;;11.37;7.73;;;20.90;99.90;;;;;;6134945;23;20409;-77
2023/07/24 07:09:47;;;;;;;9.87;8.87;;;20.90;99.90;;;;;;6134321;23;20393;-80
2023/07/24 07:12:46;;;;;;;13.23;10.00;;;21.00;99.90;;;;;;6137190;23;20437;-78
2023/07/24 07:15:16;;;;;;;10.00;9.00;;;21.00;99.90;;;;;;6094077;23;20441;-77
2023/07/24 07:17:45;;;;;;;10.57;9.20;;;21.10;99.90;;;;;;6138119;23;20429;-79
2023/07/24 07:20:16;;;;;;;11.80;9.17;;;21.10;99.90;;;;;;6134250;23;20417;-78
2023/07/24 07:22:49;;;;;;;11.43;9.00;;;21.10;99.90;;;;;;6131426;23;20810;-77
2023/07/24 07:25:17;;;;;;;9.50;8.50;;;21.20;99.90;;;;;;6129347;23;20430;-81
2023/07/24 07:28:07;;;;;;;9.97;8.97;;;21.10;99.90;;;;;;6132598;23;20488;-79
2023/07/24 07:30:40;;;;;;;10.50;9.40;;;21.20;99.90;;;;;;6131835;23;20531;-80
2023/07/24 07:33:33;;;;;;;9.47;8.43;;;21.30;99.90;;;;;;6130542;23;20764;-78
2023/07/24 07:36:14;;;;;;;12.30;9.33;;;21.30;99.90;;;;;;6114686;23;20496;-80
2023/07/24 07:38:47;;;;;;;10.17;9.07;;;21.30;99.90;;;;;;6135505;23;20495;-80
2023/07/24 07:47:36;;;;;;;12.90;9.30;;;21.50;99.90;;;;;;6133295;23;20421;-79
2023/07/24 07:50:09;;;;;;;9.97;8.87;;;21.60;99.90;;;;;;6136253;23;20747;-78
2023/07/24 07:52:56;;;;;;;9.97;8.60;;;21.70;99.90;;;;;;6134812;23;20546;-80
2023/07/24 07:55:28;;;;;;;9.40;8.10;;;21.70;99.90;;;;;;6133296;23;20520;-77
2023/07/24 07:58:14;;;;;;;10.07;9.03;;;21.70;99.90;;;;;;6132686;23;20516;-78
2023/07/24 08:00:48;;;;;;;11.73;9.00;;;21.80;99.90;;;;;;6134385;23;20421;-82
2023/07/24 08:03:30;;;;;;;10.77;9.70;;;21.80;99.90;;;;;;6143599;23;20416;-81
2023/07/24 08:06:05;;;;;;;9.80;8.90;;;21.80;99.90;;;;;;6144953;23;20452;-80
2023/07/24 08:09:19;;;;;;;12.13;9.00;;;21.80;99.90;;;;;;6145270;23;20381;-80
2023/07/24 08:22:00;;;;;;;12.17;9.60;;;21.80;99.90;;;;;;6114544;23;20397;-79
2023/07/24 08:31:12;;;;;;;10.63;9.40;;;21.60;99.90;;;;;;5909204;24;20455;-78
2023/07/24 08:34:17;;;;;;;10.00;9.00;;;21.50;99.90;;;;;;5991888;24;20425;-76
2023/07/24 08:37:54;;;;;;;;;;;;;;;;;;;;;
2023/07/24 10:26:45;;;;;;;7.73;6.93;;;21.30;99.90;;;;;;6167601;23;20428;-78
2023/07/24 10:29:56;;;;;;;8.83;7.93;;;21.30;99.90;;;;;;6138351;23;20409;-81
2023/07/24 10:33:28;;;;;;;7.60;6.80;;;21.20;99.90;;;;;;6141531;23;20443;-81
2023/07/24 10:39:53;;;;;;;7.93;7.13;;;21.20;99.90;;;;;;6133721;23;20410;-80
2023/07/24 10:42:47;;;;;;;8.67;7.20;;;21.10;99.90;;;;;;6138498;23;20407;-81
2023/07/24 10:45:47;;;;;;;9.53;8.03;;;21.00;99.90;;;;;;6122624;23;20433;-81
2023/07/24 10:51:34;;;;;;;9.60;7.97;;;21.00;99.90;;;;;;6116417;23;20831;-78
2023/07/24 10:56:59;;;;;;;9.83;7.80;;;20.80;99.90;;;;;;6136588;23;20902;-79
2023/07/24 10:59:53;;;;;;;9.17;8.30;;;20.80;99.90;;;;;;6139154;23;20455;-79
2023/07/24 11:02:55;;;;;;;9.40;8.40;;;20.70;99.90;;;;;;6141456;23;20449;-80
2023/07/24 11:05:46;;;;;;;12.10;8.77;;;20.60;99.90;;;;;;6143000;23;20714;-78
2023/07/24 11:08:40;;;;;;;12.10;8.73;;;20.60;99.90;;;;;;6144579;23;20413;-80
2023/07/24 11:11:19;;;;;;;12.60;9.73;;;20.60;99.90;;;;;;6144126;23;20441;-79
2023/07/24 11:14:35;;;;;;;9.20;8.30;;;20.50;99.90;;;;;;6144780;23;20419;-79
2023/07/24 11:17:23;;;;;;;9.13;8.27;;;20.50;99.90;;;;;;6139883;23;20421;-80
2023/07/24 11:20:18;;;;;;;10.60;8.50;;;20.30;99.90;;;;;;6145172;23;20466;-79
2023/07/24 11:22:56;;;;;;;9.90;8.80;;;20.30;99.90;;;;;;6145096;23;20444;-79
2023/07/24 11:28:24;;;;;;;10.17;8.67;;;20.20;99.90;;;;;;6169899;23;20702;-79
2023/07/24 11:31:20;;;;;;;9.67;8.37;;;20.10;99.90;;;;;;6174112;23;20425;-82
2023/07/24 11:34:10;;;;;;;9.77;8.70;;;20.00;99.90;;;;;;6174641;23;20404;-79
2023/07/24 11:36:52;;;;;;;8.90;8.00;;;20.10;99.90;;;;;;6158035;23;20416;-79
2023/07/24 11:39:56;;;;;;;10.87;8.03;;;20.20;99.90;;;;;;6174532;23;20474;-83
2023/07/24 11:42:32;;;;;;;11.57;9.20;;;20.20;99.90;;;;;;6172404;23;20804;-81
2023/07/24 11:45:19;;;;;;;9.27;8.30;;;20.40;99.90;;;;;;6171199;23;20432;-79
2023/07/24 11:48:11;;;;;;;;;;;;;;;;;;;;;
2023/07/24 11:51:02;;;;;;;8.63;7.70;;;21.20;99.90;;;;;;6170793;23;20388;-83
2023/07/24 11:54:09;;;;;;;7.73;6.93;;;21.30;99.90;;;;;;6172491;23;20412;-80
2023/07/24 11:56:44;;;;;;;8.33;7.63;;;21.30;99.90;;;;;;6168315;23;20412;-81
2023/07/24 11:59:37;;;;;;;10.53;8.40;;;21.20;99.90;;;;;;6168974;23;20422;-82
2023/07/24 12:02:11;;;;;;;9.17;8.07;;;21.10;99.90;;;;;;6166258;23;20410;-80
2023/07/24 12:08:00;;;;;;;9.53;7.40;;;20.90;99.90;;;;;;6155856;23;20420;-83
2023/07/24 12:10:50;;;;;;;8.40;7.60;;;20.80;99.90;;;;;;6167022;23;20416;-81
2023/07/24 12:13:28;;;;;;;7.93;7.13;;;20.60;99.90;;;;;;6168318;23;20436;-83
2023/07/24 12:15:56;;;;;;;8.93;8.13;;;20.60;99.90;;;;;;6167878;23;20423;-82
2023/07/24 12:18:27;;;;;;;9.00;8.10;;;20.70;99.90;;;;;;6166292;23;20420;-81
2023/07/24 12:21:01;;;;;;;7.63;7.00;;;20.60;99.90;;;;;;6168714;23;20373;-82
2023/07/24 12:23:38;;;;;;;8.57;7.73;;;20.70;99.90;;;;;;6167173;23;20391;-81
2023/07/24 12:26:20;;;;;;;8.87;7.97;;;20.80;99.90;;;;;;6166077;23;20432;-80
2023/07/24 12:28:54;;;;;;;8.10;7.30;;;20.70;99.90;;;;;;6138518;23;20404;-81
2023/07/24 12:31:22;;;;;;;8.27;7.47;;;20.70;99.90;;;;;;6135560;23;20366;-80
2023/07/24 12:33:54;;;;;;;8.23;7.43;;;20.80;99.90;;;;;;6134187;23;20413;-80
2023/07/24 12:36:29;;;;;;;7.60;6.90;;;20.80;99.90;;;;;;6134862;23;20431;-81
2023/07/24 12:39:08;;;;;;;11.40;8.30;;;20.90;99.90;;;;;;6136506;23;20472;-85
2023/07/24 12:41:45;;;;;;;8.10;7.30;;;20.90;99.90;;;;;;6137473;23;20424;-81
2023/07/24 12:44:17;;;;;;;8.90;8.00;;;20.90;99.90;;;;;;6135184;23;20412;-80
2023/07/24 12:47:08;;;;;;;8.20;7.40;;;21.00;99.90;;;;;;6133599;23;20496;-80
2023/07/24 12:49:39;;;;;;;8.60;7.80;;;21.00;99.90;;;;;;6135101;23;20424;-80
2023/07/24 12:52:31;;;;;;;9.83;7.13;;;21.10;99.90;;;;;;6136333;23;20440;-82
2023/07/24 12:55:22;;;;;;;7.60;6.90;;;21.20;99.90;;;;;;6134019;23;20441;-83
2023/07/24 12:58:10;;;;;;;7.20;6.60;;;21.40;99.90;;;;;;6134782;23;20738;-81
2023/07/24 13:00:52;;;;;;;8.07;7.27;;;21.60;99.90;;;;;;6129630;23;20476;-79
2023/07/24 13:03:33;;;;;;;7.33;6.63;;;21.80;99.90;;;;;;6133574;23;20473;-80
2023/07/24 13:06:09;;;;;;;8.30;7.27;;;22.00;99.90;;;;;;6135486;23;20448;-81
2023/07/24 13:08:43;;;;;;;7.50;6.80;;;22.10;99.90;;;;;;6135146;23;20413;-78
2023/07/24 13:11:28;;;;;;;10.77;7.47;;;22.20;99.90;;;;;;6138003;23;20409;-79
2023/07/24 13:14:10;;;;;;;9.33;8.33;;;22.40;99.90;;;;;;6137742;23;20985;-81
2023/07/24 13:16:49;;;;;;;8.60;7.50;;;22.30;99.90;;;;;;6137704;23;20439;-82
2023/07/24 13:19:32;;;;;;;8.60;7.80;;;22.40;99.90;;;;;;6137168;23;20798;-79
2023/07/24 13:22:10;;;;;;;15.57;14.07;;;22.60;99.90;;;;;;6134309;23;20416;-81
2023/07/24 13:25:00;;;;;;;9.80;8.80;;;22.70;99.90;;;;;;6137903;23;20421;-79
2023/07/24 13:28:01;;;;;;;11.03;7.57;;;22.80;99.90;;;;;;6148309;23;20436;-82
2023/07/24 13:30:48;;;;;;;7.87;7.17;;;22.90;99.90;;;;;;6165325;23;20412;-80
2023/07/24 13:33:25;;;;;;;9.47;8.10;;;23.00;99.90;;;;;;6168347;23;20439;-83
2023/07/24 13:36:14;;;;;;;9.37;7.87;;;23.20;99.90;;;;;;6168928;23;20431;-78
2023/07/24 13:39:10;;;;;;;8.53;7.73;;;23.30;99.90;;;;;;6167930;23;20393;-80
2023/07/24 13:41:47;;;;;;;6.83;6.13;;;23.50;99.90;;;;;;6165082;23;20422;-80
2023/07/24 13:44:28;;;;;;;6.10;5.60;;;23.50;99.90;;;;;;6166275;23;20443;-80
2023/07/24 13:50:16;;;;;;;6.73;6.13;;;23.50;99.90;;;;;;6165289;23;20412;-79
2023/07/24 13:52:55;;;;;;;6.10;5.60;;;23.50;99.90;;;;;;6168540;23;20475;-81
2023/07/24 13:55:51;;;;;;;6.40;5.90;;;23.70;99.90;;;;;;6163852;23;20471;-79
2023/07/24 13:58:33;;;;;;;6.67;6.07;;;24.10;99.90;;;;;;6164597;23;20416;-82
2023/07/24 14:01:07;;;;;;;6.13;5.63;;;24.50;99.90;;;;;;6163558;23;20491;-81
2023/07/24 14:03:49;;;;;;;6.00;5.50;;;24.70;99.90;;;;;;6168495;23;20507;-82
2023/07/24 14:06:20;;;;;;;6.20;5.60;;;25.10;99.90;;;;;;6166447;23;20404;-81
2023/07/24 14:09:03;;;;;;;6.27;5.67;;;25.00;99.90;;;;;;6161809;23;20416;-77
2023/07/24 14:11:33;;;;;;;5.33;4.83;;;25.30;99.90;;;;;;6164410;23;20415;-81
2023/07/24 14:14:07;;;;;;;5.80;5.30;;;25.20;99.90;;;;;;6163766;23;20389;-81
2023/07/24 14:23:04;;;;;;;8.00;7.30;;;25.90;99.90;;;;;;6146029;23;20902;-81
2023/07/24 14:25:39;;;;;;;7.27;5.90;;;25.80;99.90;;;;;;6160688;23;20491;-79
2023/07/24 14:28:14;;;;;;;5.30;4.80;;;25.90;99.90;;;;;;6161918;23;20648;-81
2023/07/24 14:30:41;;;;;;;5.03;4.60;;;25.90;99.90;;;;;;6163356;23;20479;-81
2023/07/24 14:33:17;;;;;;;5.87;5.33;;;25.60;99.90;;;;;;6164169;23;20459;-78
2023/07/24 14:35:48;;;;;;;4.67;4.27;;;25.70;99.90;;;;;;6164660;23;20723;-79
2023/07/24 14:38:20;;;;;;;5.40;4.90;;;25.60;99.90;;;;;;6163575;23;20423;-81
2023/07/24 14:40:48;;;;;;;5.00;4.60;;;25.40;99.90;;;;;;6164885;23;20435;-80
2023/07/24 14:43:16;;;;;;;5.80;5.20;;;25.80;99.90;;;;;;6164235;23;20408;-80
2023/07/24 14:45:44;;;;;;;4.80;4.40;;;25.70;99.90;;;;;;6166168;23;20435;-80
2023/07/24 14:48:24;;;;;;;5.30;4.53;;;26.00;99.90;;;;;;6168711;23;20405;-80
2023/07/24 14:50:57;;;;;;;4.93;4.50;;;26.20;99.90;;;;;;6165552;23;20415;-79
2023/07/24 14:53:32;;;;;;;4.83;4.43;;;25.90;99.90;;;;;;6165553;23;20491;-78
2023/07/24 14:56:00;;;;;;;4.87;4.43;;;26.00;99.90;;;;;;6163890;23;20436;-80
2023/07/24 14:58:50;;;;;;;;;;;;;;;;;;;;;
2023/07/24 15:01:59;;;;;;;;;;;;;;;;;;;;;
2023/07/24 15:04:38;;;;;;;5.20;4.70;;;25.30;99.90;;;;;;6163294;23;20421;-79
2023/07/24 15:07:17;;;;;;;5.40;4.90;;;25.20;99.90;;;;;;6157124;23;20472;-82
2023/07/24 15:09:54;;;;;;;4.87;4.40;;;25.30;99.90;;;;;;6165396;23;20377;-80
2023/07/24 15:13:15;;;;;;;5.20;4.70;;;25.30;99.90;;;;;;6162746;23;20434;-83
2023/07/24 15:15:46;;;;;;;5.40;4.90;;;25.80;99.90;;;;;;6127803;23;20455;-80
2023/07/24 15:33:45;;;;;;;4.47;4.17;;;25.50;99.90;;;;;;6152739;23;20448;-77
2023/07/24 15:40:30;;;;;;;;;;;;;;;;;;;;;
2023/07/24 15:46:56;;;;;;;4.93;4.53;;;24.40;99.90;;;;;;6084392;23;20738;-82
2023/07/24 15:49:41;;;;;;;4.23;3.83;;;24.20;99.90;;;;;;6159799;23;20408;-77
2023/07/24 15:52:34;;;;;;;5.40;4.57;;;24.00;99.90;;;;;;6134466;23;20472;-80
2023/07/24 16:01:27;;;;;;;4.40;4.00;;;24.10;99.90;;;;;;6151359;23;20420;-79
2023/07/24 16:04:33;;;;;;;4.57;3.60;;;24.40;99.90;;;;;;6170662;23;20419;-80
2023/07/24 16:15:51;;;;;;;5.07;4.53;;;23.80;99.90;;;;;;6052526;23;20422;-84
2023/07/24 17:04:41;;;;;;;5.20;3.73;;;22.20;99.90;;;;;;5965437;24;20391;-79
2023/07/24 17:07:50;;;;;;;4.80;3.60;;;21.60;99.90;;;;;;6080197;23;20518;-81
2023/07/24 17:30:47;;;;;;;6.33;4.97;;;20.80;99.90;;;;;;5002965;28;20451;-82
2023/07/24 17:41:02;;;;;;;;;;;;;;;;;;;;;
2023/07/24 17:50:30;;;;;;;3.33;3.03;;;21.20;99.90;;;;;;4961016;28;20453;-80
2023/07/24 18:14:19;;;;;;;2.83;2.63;;;21.40;99.90;;;;;;5028233;28;20452;-79
2023/07/24 18:19:47;;;;;;;3.03;2.83;;;21.40;99.90;;;;;;5041813;28;20443;-83
2023/07/24 18:25:39;;;;;;;3.83;3.10;;;21.50;99.90;;;;;;4985594;28;20485;-78
2023/07/24 18:31:24;;;;;;;3.83;3.43;;;21.30;99.90;;;;;;4992618;28;20442;-82
2023/07/24 18:34:24;;;;;;;2.90;2.67;;;21.20;99.90;;;;;;5051480;28;20439;-84
2023/07/24 18:37:15;;;;;;;2.50;2.30;;;21.10;99.90;;;;;;5049452;28;20486;-80
2023/07/24 18:40:42;;;;;;;3.97;2.43;;;21.10;99.90;;;;;;5051118;28;20442;-83
2023/07/24 18:44:08;;;;;;;3.20;2.73;;;21.00;99.90;;;;;;5002798;28;20442;-83
2023/07/24 18:56:33;;;;;;;3.20;3.00;;;20.70;99.90;;;;;;4912050;29;20513;-80
2023/07/24 18:59:32;;;;;;;2.97;2.77;;;20.70;99.90;;;;;;4913655;29;20453;-80
2023/07/24 19:02:07;;;;;;;2.27;2.13;;;20.60;99.90;;;;;;4988218;28;20470;-82
2023/07/24 19:04:34;;;;;;;2.27;2.17;;;20.60;99.90;;;;;;5048754;28;20470;-79
2023/07/24 19:07:01;;;;;;;2.70;2.50;;;20.50;99.90;;;;;;5047950;28;20447;-82
2023/07/24 19:13:09;;;;;;;2.47;2.37;;;20.30;99.90;;;;;;5050087;28;20431;-80
2023/07/24 19:16:35;;;;;;;;;;;;;;;;;;;;;
2023/07/24 19:26:21;;;;;;;3.20;3.00;;;20.10;99.90;;;;;;5045046;28;20455;-79
2023/07/24 19:29:34;;;;;;;3.93;3.63;;;20.00;99.90;;;;;;5045611;28;20470;-82
2023/07/24 19:35:39;;;;;;;2.87;2.67;;;19.90;99.90;;;;;;5034670;28;20451;-83
2023/07/24 19:39:08;;;;;;;;;;;;;;;;;;;;;
2023/07/24 19:42:11;;;;;;;3.10;2.90;;;19.80;99.90;;;;;;5005258;28;20446;-80
2023/07/24 19:45:23;;;;;;;2.83;2.33;;;19.70;99.90;;;;;;5041022;28;20463;-83
2023/07/24 19:57:45;;;;;;;2.77;2.63;;;19.40;99.90;;;;;;5054700;28;20954;-80
2023/07/24 20:00:17;;;;;;;5.20;2.77;;;19.30;99.90;;;;;;5053974;28;20439;-78
2023/07/24 20:02:57;;;;;;;3.03;2.83;;;19.20;99.90;;;;;;5053229;28;20442;-79
2023/07/24 20:05:41;;;;;;;2.70;2.50;;;19.10;99.90;;;;;;5053160;28;20470;-80
2023/07/24 20:08:36;;;;;;;3.60;2.53;;;19.10;99.90;;;;;;5053381;28;20465;-82
2023/07/24 20:11:28;;;;;;;2.80;2.60;;;19.10;99.90;;;;;;5055430;28;20509;-81
2023/07/24 20:14:36;;;;;;;2.80;2.60;;;19.00;99.90;;;;;;5054684;28;20423;-79
2023/07/24 20:17:41;;;;;;;3.37;2.80;;;19.00;99.90;;;;;;5054837;28;20476;-78
2023/07/24 20:23:41;;;;;;;5.53;2.60;;;19.00;99.90;;;;;;5038107;28;20476;-78
2023/07/24 20:26:28;;;;;;;2.67;2.47;;;18.90;99.90;;;;;;5051827;28;20438;-82
2023/07/24 20:29:19;;;;;;;3.00;2.70;;;18.90;99.90;;;;;;5051944;28;20473;-81
2023/07/24 20:32:05;;;;;;;3.80;2.77;;;18.90;99.90;;;;;;5055919;28;20434;-86
2023/07/24 20:34:50;;;;;;;3.07;2.87;;;18.90;99.90;;;;;;5057471;28;20516;-78
2023/07/24 20:37:50;;;;;;;2.80;2.60;;;18.80;99.90;;;;;;5056919;28;20472;-80
2023/07/24 20:41:06;;;;;;;3.67;2.67;;;18.80;99.90;;;;;;5050990;28;20452;-78
2023/07/24 20:43:43;;;;;;;2.87;2.67;;;18.80;99.90;;;;;;5019738;28;20448;-83
2023/07/24 20:46:12;;;;;;;3.27;3.03;;;18.80;99.90;;;;;;5044483;28;20735;-79
2023/07/24 20:49:09;;;;;;;2.77;2.57;;;18.70;99.90;;;;;;5041700;28;20520;-79
2023/07/24 20:52:02;;;;;;;2.87;2.67;;;18.70;99.90;;;;;;5040445;28;20941;-82
2023/07/24 20:55:18;;;;;;;2.57;2.37;;;18.60;99.90;;;;;;5032965;28;20473;-77
2023/07/24 20:58:37;;;;;;;2.57;2.43;;;18.60;99.90;;;;;;5040243;28;20457;-83
2023/07/24 21:04:58;;;;;;;3.40;2.57;;;18.60;99.90;;;;;;5003012;28;20441;-80
2023/07/24 21:07:58;;;;;;;2.73;2.47;;;18.60;99.90;;;;;;5045109;28;20446;-81
2023/07/24 21:14:12;;;;;;;3.33;2.43;;;18.60;99.90;;;;;;5044360;28;20463;-80
2023/07/24 21:17:43;;;;;;;;;;;;;;;;;;;;;
2023/07/24 21:41:51;;;;;;;;;;;;;;;;;;;;;
2023/07/24 21:51:35;;;;;;;;;;;;;;;;;;;;;
2023/07/24 21:58:12;;;;;;;2.90;2.70;;;18.10;99.90;;;;;;4957972;28;20479;-79
2023/07/24 22:05:23;;;;;;;3.00;2.53;;;18.10;99.90;;;;;;4938526;29;20499;-79
2023/07/24 22:08:40;;;;;;;3.10;2.80;;;18.10;99.90;;;;;;4880284;29;20523;-79
2023/07/24 22:11:58;;;;;;;5.87;3.63;;;18.10;99.90;;;;;;4899471;29;20459;-79
2023/07/24 22:14:37;;;;;;;3.50;3.20;;;18.10;99.90;;;;;;4863878;29;20515;-80
2023/07/24 22:17:49;;;;;;;3.60;2.67;;;18.20;99.90;;;;;;4916523;29;20462;-78
2023/07/24 22:23:46;;;;;;;4.47;3.10;;;18.20;99.90;;;;;;4906827;29;20477;-80
2023/07/24 22:44:06;;;;;;;3.57;3.27;;;18.00;99.90;;;;;;4990225;28;20460;-79
